createdAt,value
2023-01-19T00:00:39.074Z,69.60
2023-01-19T00:03:25.177Z,69.69
2023-01-19T00:05:52.011Z,69.66
2023-01-19T00:08:18.947Z,69.78
2023-01-19T00:10:50.529Z,69.88
2023-01-19T00:13:17.677Z,69.89
2023-01-19T00:15:44.595Z,69.88
2023-01-19T00:18:11.664Z,69.76
2023-01-19T00:20:39.807Z,69.72
2023-01-19T00:23:07.405Z,69.72
2023-01-19T00:25:34.622Z,69.80
2023-01-19T00:28:01.942Z,69.79
2023-01-19T00:30:29.563Z,70.01
2023-01-19T00:32:56.395Z,69.92
2023-01-19T00:35:23.122Z,69.97
2023-01-19T00:37:50.275Z,70.03
2023-01-19T00:40:17.731Z,70.12
2023-01-19T00:42:45.388Z,70.13
2023-01-19T00:45:21.907Z,70.31
2023-01-19T00:47:56.215Z,70.30
2023-01-19T00:50:24.839Z,70.27
2023-01-19T00:52:53.346Z,70.18
2023-01-19T00:55:20.318Z,70.23
2023-01-19T00:57:47.230Z,70.34
2023-01-19T01:00:16.943Z,70.40
2023-01-19T01:02:48.671Z,70.39
2023-01-19T01:05:16.192Z,70.46
2023-01-19T01:07:46.478Z,70.56
2023-01-19T01:10:19.576Z,70.56
2023-01-19T01:12:54.822Z,70.55
2023-01-19T01:15:29.308Z,70.53
2023-01-19T01:17:56.259Z,70.44
2023-01-19T01:20:29.671Z,70.40
2023-01-19T01:22:57.370Z,70.37
2023-01-19T01:25:26.433Z,70.23
2023-01-19T01:27:54.073Z,70.37
2023-01-19T01:30:21.416Z,70.45
2023-01-19T01:32:48.525Z,70.25
2023-01-19T01:35:15.743Z,70.33
2023-01-19T01:37:42.804Z,70.33
2023-01-19T01:40:15.258Z,70.22
2023-01-19T01:42:42.372Z,70.24
2023-01-19T01:45:27.672Z,70.31
2023-01-19T01:48:00.890Z,70.18
2023-01-19T01:50:31.361Z,70.29
2023-01-19T01:53:06.512Z,70.10
2023-01-19T01:55:40.809Z,70.29
2023-01-19T01:58:09.954Z,70.20
2023-01-19T02:00:57.253Z,70.13
2023-01-19T02:03:25.584Z,70.14
2023-01-19T02:05:58.582Z,70.01
2023-01-19T02:08:53.740Z,70.14
2023-01-19T02:11:39.844Z,69.96
2023-01-19T02:14:06.994Z,69.88
2023-01-19T02:16:35.720Z,69.80
2023-01-19T02:19:08.155Z,69.95
2023-01-19T02:21:48.620Z,70.00
2023-01-19T02:24:15.655Z,69.97
2023-01-19T02:26:46.273Z,69.77
2023-01-19T02:29:15.828Z,69.75
2023-01-19T02:31:43.110Z,69.84
2023-01-19T02:34:12.346Z,69.81
2023-01-19T02:36:41.568Z,69.83
2023-01-19T02:39:10.578Z,69.49
2023-01-19T02:41:45.702Z,69.58
2023-01-19T02:44:14.673Z,69.62
2023-01-19T02:46:41.636Z,69.65
2023-01-19T02:49:08.432Z,69.57
2023-01-19T02:51:35.708Z,69.51
2023-01-19T02:54:11.676Z,69.51
2023-01-19T02:56:45.789Z,69.40
2023-01-19T02:59:32.893Z,69.43
2023-01-19T03:02:14.076Z,69.43
2023-01-19T03:04:53.002Z,69.45
2023-01-19T03:07:35.014Z,69.34
2023-01-19T03:10:20.069Z,69.39
2023-01-19T03:12:54.172Z,69.13
2023-01-19T03:15:40.502Z,69.18
2023-01-19T03:18:10.411Z,69.18
2023-01-19T03:20:39.587Z,69.24
2023-01-19T03:23:09.915Z,69.24
2023-01-19T03:25:42.152Z,69.24
2023-01-19T03:28:09.576Z,69.20
2023-01-19T03:30:41.825Z,69.32
2023-01-19T03:33:16.323Z,69.25
2023-01-19T03:35:48.684Z,69.11
2023-01-19T03:38:19.048Z,69.08
2023-01-19T03:40:47.015Z,69.13
2023-01-19T03:43:16.052Z,69.10
2023-01-19T03:45:43.750Z,69.16
2023-01-19T03:48:10.932Z,69.04
2023-01-19T03:50:37.844Z,68.99
2023-01-19T03:53:12.522Z,68.87
2023-01-19T03:55:42.896Z,69.02
2023-01-19T03:58:09.592Z,68.78
2023-01-19T04:00:37.300Z,68.98
2023-01-19T04:03:05.410Z,68.84
2023-01-19T04:05:32.581Z,68.73
2023-01-19T04:08:00.180Z,68.64
2023-01-19T04:10:27.259Z,68.68
2023-01-19T04:12:58.385Z,68.86
2023-01-19T04:15:25.724Z,68.68
2023-01-19T04:17:52.973Z,68.70
2023-01-19T04:20:21.049Z,68.61
2023-01-19T04:22:49.059Z,68.72
2023-01-19T04:25:15.970Z,68.55
2023-01-19T04:27:42.802Z,68.55
2023-01-19T04:30:10.387Z,68.55
2023-01-19T04:32:37.056Z,68.49
2023-01-19T04:35:04.331Z,68.42
2023-01-19T04:37:30.971Z,68.56
2023-01-19T04:39:57.602Z,68.49
2023-01-19T04:42:24.249Z,68.50
2023-01-19T04:44:52.031Z,68.44
2023-01-19T04:47:19.135Z,68.26
2023-01-19T04:49:45.775Z,68.33
2023-01-19T04:52:12.557Z,68.15
2023-01-19T04:54:39.396Z,68.25
2023-01-19T04:57:06.140Z,68.20
2023-01-19T04:59:33.135Z,68.23
2023-01-19T05:02:00.083Z,68.30
2023-01-19T05:04:27.091Z,68.17
2023-01-19T05:06:53.925Z,68.30
2023-01-19T05:09:20.821Z,68.19
2023-01-19T05:11:47.480Z,68.24
2023-01-19T05:14:14.089Z,68.07
2023-01-19T05:16:41.431Z,68.13
2023-01-19T05:19:08.445Z,67.96
2023-01-19T05:21:35.207Z,68.05
2023-01-19T05:24:02.429Z,68.12
2023-01-19T05:26:29.081Z,68.02
2023-01-19T05:28:56.143Z,68.06
2023-01-19T05:31:22.995Z,68.03
2023-01-19T05:33:49.901Z,67.96
2023-01-19T05:36:16.780Z,67.85
2023-01-19T05:38:43.514Z,67.94
2023-01-19T05:41:10.224Z,67.76
2023-01-19T05:43:37.421Z,67.93
2023-01-19T05:46:04.937Z,67.84
2023-01-19T05:48:32.010Z,67.80
2023-01-19T05:50:59.847Z,67.87
2023-01-19T05:53:28.018Z,67.87
2023-01-19T05:56:07.111Z,67.78
2023-01-19T05:58:35.263Z,67.81
2023-01-19T06:01:04.920Z,67.85
2023-01-19T06:03:33.456Z,67.76
2023-01-19T06:06:00.600Z,67.63
2023-01-19T06:08:27.587Z,67.64
2023-01-19T06:10:54.297Z,67.63
2023-01-19T06:13:21.109Z,67.63
2023-01-19T06:15:48.003Z,67.53
2023-01-19T06:18:14.742Z,67.54
2023-01-19T06:20:41.620Z,67.48
2023-01-19T06:23:09.955Z,67.50
2023-01-19T06:25:36.944Z,67.42
2023-01-19T06:28:03.883Z,67.63
2023-01-19T06:30:30.702Z,67.62
2023-01-19T06:32:57.613Z,67.63
2023-01-19T06:35:24.612Z,67.50
2023-01-19T06:37:52.478Z,67.55
2023-01-19T06:40:19.733Z,67.47
2023-01-19T06:42:48.213Z,67.61
2023-01-19T06:45:14.978Z,67.53
2023-01-19T06:47:41.997Z,67.63
2023-01-19T06:50:09.457Z,67.57
2023-01-19T06:52:41.676Z,67.57
2023-01-19T06:55:12.235Z,67.56
2023-01-19T06:57:39.747Z,67.72
2023-01-19T07:00:08.498Z,67.62
2023-01-19T07:02:36.377Z,67.68
2023-01-19T07:05:06.045Z,67.50
2023-01-19T07:07:32.827Z,67.62
2023-01-19T07:09:59.493Z,67.49
2023-01-19T07:12:26.513Z,67.73
2023-01-19T07:14:53.355Z,67.67
2023-01-19T07:17:20.193Z,67.66
2023-01-19T07:19:47.136Z,67.66
2023-01-19T07:22:14.147Z,67.66
2023-01-19T07:24:41.144Z,67.70
2023-01-19T07:27:08.093Z,67.54
2023-01-19T07:29:34.814Z,67.68
2023-01-19T07:32:01.734Z,67.65
2023-01-19T07:34:28.804Z,67.60
2023-01-19T07:36:56.156Z,67.59
2023-01-19T07:39:22.808Z,67.57
2023-01-19T07:41:49.388Z,67.65
2023-01-19T07:44:16.186Z,67.56
2023-01-19T07:46:43.178Z,67.55
2023-01-19T07:49:10.924Z,67.76
2023-01-19T07:51:37.621Z,67.64
2023-01-19T07:54:04.280Z,67.72
2023-01-19T07:56:33.652Z,67.53
2023-01-19T07:59:00.708Z,67.46
2023-01-19T08:01:29.068Z,67.47
2023-01-19T08:03:56.347Z,67.42
2023-01-19T08:06:26.589Z,67.45
2023-01-19T08:08:53.532Z,67.33
2023-01-19T08:11:20.861Z,67.34
2023-01-19T08:13:47.600Z,67.27
2023-01-19T08:16:14.439Z,67.28
2023-01-19T08:18:41.926Z,67.22
2023-01-19T08:21:08.737Z,67.34
2023-01-19T08:23:35.584Z,67.42
2023-01-19T08:26:37.340Z,67.58
2023-01-19T08:29:06.330Z,67.30
2023-01-19T08:31:33.615Z,67.27
2023-01-19T08:34:01.784Z,67.22
2023-01-19T08:36:29.014Z,67.30
2023-01-19T08:38:55.839Z,67.16
2023-01-19T08:41:22.578Z,67.25
2023-01-19T08:43:49.636Z,67.11
2023-01-19T08:46:16.915Z,67.10
2023-01-19T08:48:50.168Z,67.28
2023-01-19T08:51:17.546Z,67.04
2023-01-19T08:53:44.696Z,67.08
2023-01-19T08:56:13.412Z,67.07
2023-01-19T08:58:42.573Z,67.04
2023-01-19T09:01:10.353Z,67.18
2023-01-19T09:03:37.197Z,67.14
2023-01-19T09:06:07.555Z,67.07
2023-01-19T09:08:34.492Z,67.18
2023-01-19T09:11:01.974Z,67.20
2023-01-19T09:13:28.747Z,67.32
2023-01-19T09:15:55.451Z,67.20
2023-01-19T09:18:22.446Z,67.09
2023-01-19T09:20:49.988Z,67.06
2023-01-19T09:23:19.605Z,67.18
2023-01-19T09:25:47.570Z,67.05
2023-01-19T09:28:16.952Z,66.95
2023-01-19T09:30:44.719Z,67.07
2023-01-19T09:33:14.751Z,66.95
2023-01-19T09:35:42.673Z,67.02
2023-01-19T09:38:10.072Z,66.84
2023-01-19T09:40:43.172Z,66.78
2023-01-19T09:43:31.805Z,66.80
2023-01-19T09:46:02.137Z,66.84
2023-01-19T09:49:07.929Z,66.81
2023-01-19T09:51:39.084Z,66.76
2023-01-19T09:54:13.871Z,66.64
2023-01-19T09:56:41.935Z,66.69
2023-01-19T09:59:29.697Z,66.55
2023-01-19T10:02:12.722Z,66.69
2023-01-19T10:04:51.011Z,66.59
2023-01-19T10:07:40.781Z,66.44
2023-01-19T10:10:20.287Z,66.47
2023-01-19T10:12:59.800Z,66.37
2023-01-19T10:15:40.429Z,66.27
2023-01-19T10:18:12.610Z,66.17
2023-01-19T10:20:59.281Z,66.15
2023-01-19T10:23:34.512Z,65.82
2023-01-19T10:26:09.882Z,65.98
2023-01-19T10:28:38.360Z,65.87
2023-01-19T10:31:07.085Z,65.89
2023-01-19T10:33:34.707Z,65.89
2023-01-19T10:36:29.468Z,65.78
2023-01-19T10:38:57.374Z,65.88
2023-01-19T10:41:30.015Z,65.86
2023-01-19T10:44:04.770Z,65.70
2023-01-19T10:46:43.073Z,65.57
2023-01-19T10:49:38.431Z,65.60
2023-01-19T10:52:28.815Z,65.36
2023-01-19T10:54:56.143Z,65.24
2023-01-19T10:57:34.189Z,65.10
2023-01-19T11:00:01.576Z,65.04
2023-01-19T11:02:30.775Z,65.02
2023-01-19T11:05:20.589Z,64.67
2023-01-19T11:07:47.709Z,64.46
2023-01-19T11:10:20.170Z,64.53
2023-01-19T11:13:12.153Z,64.36
2023-01-19T11:16:03.618Z,64.27
2023-01-19T11:18:34.102Z,64.20
2023-01-19T11:21:06.323Z,63.95
2023-01-19T11:23:41.492Z,63.80
2023-01-19T11:26:15.631Z,63.82
2023-01-19T11:28:47.357Z,63.74
2023-01-19T11:31:14.181Z,63.36
2023-01-19T11:33:47.685Z,63.46
2023-01-19T11:36:20.586Z,63.26
2023-01-19T11:38:50.058Z,63.28
2023-01-19T11:41:46.123Z,62.98
2023-01-19T11:44:21.364Z,63.12
2023-01-19T11:46:59.451Z,62.99
2023-01-19T11:49:43.760Z,62.67
2023-01-19T11:52:22.953Z,62.70
2023-01-19T11:55:30.764Z,62.45
2023-01-19T11:57:58.525Z,62.31
2023-01-19T12:00:37.043Z,62.38
2023-01-19T12:03:21.154Z,62.24
2023-01-19T12:05:54.691Z,62.04
2023-01-19T12:08:26.745Z,61.92
2023-01-19T12:10:56.897Z,61.05
2023-01-19T12:13:25.861Z,61.34
2023-01-19T12:16:09.944Z,61.54
2023-01-19T12:18:43.262Z,61.33
2023-01-19T12:21:10.255Z,61.19
2023-01-19T12:23:48.758Z,61.20
2023-01-19T12:26:15.702Z,61.05
2023-01-19T12:28:46.749Z,61.06
2023-01-19T12:31:19.287Z,60.84
2023-01-19T12:33:46.781Z,60.33
2023-01-19T12:36:16.730Z,60.31
2023-01-19T12:38:52.294Z,60.34
2023-01-19T12:41:29.043Z,60.69
2023-01-19T12:44:11.300Z,60.63
2023-01-19T12:46:45.398Z,60.59
2023-01-19T12:49:33.058Z,60.64
2023-01-19T12:52:17.001Z,60.27
2023-01-19T12:54:49.785Z,60.47
2023-01-19T12:57:25.928Z,60.33
2023-01-19T13:00:02.968Z,59.77
2023-01-19T13:02:42.633Z,59.66
2023-01-19T13:05:11.665Z,59.75
2023-01-19T13:08:10.868Z,59.50
2023-01-19T13:11:12.650Z,59.45
2023-01-19T13:13:41.578Z,59.78
2023-01-19T13:16:21.670Z,59.53
2023-01-19T13:19:05.715Z,59.82
2023-01-19T13:21:45.075Z,59.33
2023-01-19T13:24:17.229Z,59.29
2023-01-19T13:26:50.126Z,59.56
2023-01-19T13:29:39.771Z,59.49
2023-01-19T13:32:18.947Z,59.40
2023-01-19T13:34:51.187Z,58.75
2023-01-19T13:37:21.462Z,58.84
2023-01-19T13:39:52.555Z,58.91
2023-01-19T13:42:38.200Z,58.68
2023-01-19T13:45:25.859Z,58.62
2023-01-19T13:47:55.156Z,58.30
2023-01-19T13:50:26.336Z,58.19
2023-01-19T13:52:55.091Z,58.15
2023-01-19T13:55:23.210Z,58.00
2023-01-19T13:57:51.068Z,57.75
2023-01-19T14:00:19.833Z,57.71
2023-01-19T14:03:12.592Z,57.62
2023-01-19T14:05:41.652Z,57.79
2023-01-19T14:08:10.669Z,57.54
2023-01-19T14:10:46.649Z,57.77
2023-01-19T14:13:16.803Z,57.71
2023-01-19T14:15:44.876Z,57.47
2023-01-19T14:18:17.584Z,57.46
2023-01-19T14:21:07.482Z,57.68
2023-01-19T14:23:54.890Z,57.75
2023-01-19T14:26:55.829Z,57.63
2023-01-19T14:29:29.545Z,57.75
2023-01-19T14:32:11.122Z,57.95
2023-01-19T14:34:45.761Z,57.92
2023-01-19T14:37:26.310Z,57.96
2023-01-19T14:40:10.562Z,57.92
2023-01-19T14:42:46.003Z,58.08
2023-01-19T14:45:37.642Z,58.11
2023-01-19T14:48:11.739Z,58.15
2023-01-19T14:50:42.829Z,58.18
2023-01-19T14:53:16.623Z,58.37
2023-01-19T14:55:51.887Z,58.33
2023-01-19T14:58:21.047Z,58.38
2023-01-19T15:00:49.179Z,58.60
2023-01-19T15:03:16.347Z,58.80
2023-01-19T15:05:45.954Z,58.88
2023-01-19T15:08:18.558Z,58.86
2023-01-19T15:10:45.887Z,58.87
2023-01-19T15:13:20.117Z,59.08
2023-01-19T15:15:49.156Z,59.13
2023-01-19T15:18:20.411Z,59.21
2023-01-19T15:20:47.183Z,59.21
2023-01-19T15:23:13.918Z,59.59
2023-01-19T15:25:40.689Z,59.59
2023-01-19T15:28:18.794Z,59.67
2023-01-19T15:30:45.820Z,59.69
2023-01-19T15:33:24.162Z,59.71
2023-01-19T15:35:52.305Z,59.71
2023-01-19T15:38:19.306Z,59.83
2023-01-19T15:40:51.163Z,59.93
2023-01-19T15:43:18.703Z,60.03
2023-01-19T15:46:00.366Z,60.20
2023-01-19T15:48:27.250Z,60.17
2023-01-19T15:50:54.248Z,60.28
2023-01-19T15:53:23.552Z,60.49
2023-01-19T15:55:52.292Z,60.55
2023-01-19T15:58:20.385Z,60.61
2023-01-19T16:00:55.649Z,60.83
2023-01-19T16:03:23.727Z,60.88
2023-01-19T16:05:50.834Z,60.82
2023-01-19T16:08:17.807Z,60.93
2023-01-19T16:10:44.677Z,60.95
2023-01-19T16:13:11.773Z,61.16
2023-01-19T16:15:39.674Z,61.08
2023-01-19T16:18:06.554Z,61.53
2023-01-19T16:20:33.872Z,61.46
2023-01-19T16:23:14.570Z,61.54
2023-01-19T16:25:42.821Z,61.57
2023-01-19T16:28:09.908Z,61.80
2023-01-19T16:30:36.613Z,61.84
2023-01-19T16:33:04.766Z,61.92
2023-01-19T16:35:31.708Z,61.82
2023-01-19T16:37:58.401Z,61.90
2023-01-19T16:40:25.562Z,61.96
2023-01-19T16:42:52.200Z,62.18
2023-01-19T16:45:18.877Z,62.29
2023-01-19T16:47:49.800Z,62.53
2023-01-19T16:50:16.668Z,62.56
2023-01-19T16:52:44.425Z,62.84
2023-01-19T16:55:11.665Z,62.81
2023-01-19T16:57:39.139Z,62.83
2023-01-19T17:00:08.705Z,62.89
2023-01-19T17:02:36.069Z,62.75
2023-01-19T17:05:03.448Z,63.00
2023-01-19T17:07:30.139Z,62.93
2023-01-19T17:09:56.934Z,63.06
2023-01-19T17:12:23.821Z,63.12
2023-01-19T17:14:50.621Z,63.06
2023-01-19T17:17:17.484Z,62.91
2023-01-19T17:19:44.807Z,63.18
2023-01-19T17:22:12.809Z,63.38
2023-01-19T17:24:42.022Z,63.51
2023-01-19T17:27:09.259Z,63.59
2023-01-19T17:29:36.394Z,63.85
2023-01-19T17:32:03.826Z,63.86
2023-01-19T17:34:30.629Z,63.94
2023-01-19T17:37:02.238Z,63.81
2023-01-19T17:39:29.504Z,63.94
2023-01-19T17:41:56.635Z,63.83
2023-01-19T17:44:23.575Z,63.85
2023-01-19T17:46:50.618Z,64.11
2023-01-19T17:49:17.546Z,64.06
2023-01-19T17:51:44.930Z,64.26
2023-01-19T17:54:13.500Z,64.29
2023-01-19T17:56:40.827Z,64.24
2023-01-19T17:59:07.943Z,64.19
2023-01-19T18:01:40.035Z,64.45
2023-01-19T18:04:08.344Z,64.33
2023-01-19T18:06:36.339Z,64.30
2023-01-19T18:09:04.496Z,64.33
2023-01-19T18:11:31.843Z,64.41
2023-01-19T18:14:00.162Z,64.34
2023-01-19T18:16:28.816Z,64.44
2023-01-19T18:18:56.532Z,64.54
2023-01-19T18:21:26.720Z,64.47
2023-01-19T18:24:00.797Z,64.50
2023-01-19T18:26:29.087Z,64.61
2023-01-19T18:28:56.739Z,64.54
2023-01-19T18:31:25.061Z,64.64
2023-01-19T18:33:52.072Z,64.55
2023-01-19T18:36:19.925Z,64.56
2023-01-19T18:38:47.305Z,64.53
2023-01-19T18:41:17.231Z,64.63
2023-01-19T18:43:44.963Z,64.67
2023-01-19T18:46:12.972Z,64.76
2023-01-19T18:48:40.093Z,64.73
2023-01-19T18:51:08.874Z,64.71
2023-01-19T18:53:36.736Z,64.71
2023-01-19T18:56:04.195Z,64.79
2023-01-19T18:58:32.544Z,64.97
2023-01-19T19:01:00.679Z,64.91
2023-01-19T19:03:28.414Z,64.82
2023-01-19T19:05:56.061Z,64.87
2023-01-19T19:08:23.018Z,64.92
2023-01-19T19:10:49.783Z,64.91
2023-01-19T19:13:17.244Z,65.07
2023-01-19T19:15:44.367Z,64.94
2023-01-19T19:18:13.274Z,65.02
2023-01-19T19:20:42.433Z,65.03
2023-01-19T19:23:11.102Z,64.96
2023-01-19T19:25:38.231Z,65.11
2023-01-19T19:28:05.332Z,65.13
2023-01-19T19:30:34.032Z,65.28
2023-01-19T19:33:00.888Z,65.32
2023-01-19T19:35:37.728Z,65.29
2023-01-19T19:38:04.691Z,65.34
2023-01-19T19:40:31.731Z,65.24
2023-01-19T19:42:58.946Z,65.40
2023-01-19T19:45:26.365Z,65.44
2023-01-19T19:47:53.443Z,65.38
2023-01-19T19:50:20.167Z,65.43
2023-01-19T19:52:46.965Z,65.40
2023-01-19T19:55:13.752Z,65.49
2023-01-19T19:57:40.963Z,65.65
2023-01-19T20:00:08.517Z,65.58
2023-01-19T20:02:38.077Z,65.64
2023-01-19T20:05:05.681Z,65.64
2023-01-19T20:07:32.925Z,65.74
2023-01-19T20:09:59.900Z,65.91
2023-01-19T20:12:30.495Z,65.84
2023-01-19T20:15:20.696Z,65.90
2023-01-19T20:17:47.839Z,65.91
2023-01-19T20:20:15.231Z,65.82
2023-01-19T20:23:06.627Z,65.93
2023-01-19T20:25:38.481Z,65.78
2023-01-19T20:28:05.831Z,65.70
2023-01-19T20:30:32.887Z,65.79
2023-01-19T20:33:00.101Z,65.91
2023-01-19T20:35:28.117Z,65.99
2023-01-19T20:37:55.144Z,66.03
2023-01-19T20:40:40.832Z,65.89
2023-01-19T20:43:08.387Z,66.06
2023-01-19T20:45:35.357Z,66.02
2023-01-19T20:48:02.346Z,66.26
2023-01-19T20:50:29.324Z,66.02
2023-01-19T20:52:55.996Z,66.12
2023-01-19T20:55:22.784Z,66.01
2023-01-19T20:57:49.750Z,66.05
2023-01-19T21:00:17.011Z,66.13
2023-01-19T21:02:48.736Z,66.21
2023-01-19T21:05:17.421Z,66.29
2023-01-19T21:07:44.817Z,66.33
2023-01-19T21:10:11.641Z,66.45
2023-01-19T21:12:57.120Z,66.25
2023-01-19T21:15:24.003Z,66.55
2023-01-19T21:17:51.011Z,66.43
2023-01-19T21:20:18.802Z,66.22
2023-01-19T21:22:46.232Z,66.25
2023-01-19T21:25:32.020Z,66.38
2023-01-19T21:27:59.091Z,66.25
2023-01-19T21:30:26.158Z,66.19
2023-01-19T21:32:54.389Z,66.20
2023-01-19T21:35:21.353Z,66.39
2023-01-19T21:37:48.169Z,66.39
2023-01-19T21:40:15.103Z,66.45
2023-01-19T21:42:41.870Z,66.27
2023-01-19T21:45:09.133Z,66.42
2023-01-19T21:47:36.428Z,66.43
2023-01-19T21:50:04.203Z,66.31
2023-01-19T21:52:30.970Z,66.32
2023-01-19T21:54:58.012Z,66.43
2023-01-19T21:57:24.719Z,66.41
2023-01-19T21:59:51.600Z,66.37
2023-01-19T22:02:33.359Z,66.35
2023-01-19T22:05:10.061Z,66.39
2023-01-19T22:07:37.210Z,66.34
2023-01-19T22:10:05.184Z,66.30
2023-01-19T22:12:32.128Z,66.30
2023-01-19T22:15:01.780Z,66.36
2023-01-19T22:17:28.446Z,66.34
2023-01-19T22:19:55.417Z,66.44
2023-01-19T22:22:22.533Z,66.37
2023-01-19T22:24:50.133Z,66.42
2023-01-19T22:27:17.277Z,66.42
2023-01-19T22:29:44.169Z,66.47
2023-01-19T22:32:10.844Z,66.31
2023-01-19T22:34:37.496Z,66.41
2023-01-19T22:37:05.766Z,66.48
2023-01-19T22:39:33.951Z,66.32
2023-01-19T22:42:00.694Z,66.52
2023-01-19T22:44:27.450Z,66.42
2023-01-19T22:46:55.293Z,66.38
2023-01-19T22:49:22.351Z,66.32
2023-01-19T22:52:12.755Z,66.38
2023-01-19T22:54:39.405Z,66.31
2023-01-19T22:57:07.582Z,66.39
2023-01-19T22:59:34.493Z,66.40
2023-01-19T23:02:01.400Z,66.48
2023-01-19T23:04:28.281Z,66.48
2023-01-19T23:07:13.862Z,66.31
2023-01-19T23:09:40.597Z,66.32
2023-01-19T23:12:07.337Z,66.30
2023-01-19T23:14:35.614Z,66.34
2023-01-19T23:17:20.823Z,66.35
2023-01-19T23:19:47.488Z,66.43
2023-01-19T23:22:32.936Z,66.43
2023-01-19T23:24:59.953Z,66.43
2023-01-19T23:27:26.793Z,66.48
2023-01-19T23:29:53.492Z,66.51
2023-01-19T23:32:20.318Z,66.36
2023-01-19T23:34:47.321Z,66.50
2023-01-19T23:37:16.007Z,66.53
2023-01-19T23:40:01.585Z,66.33
2023-01-19T23:42:28.636Z,66.23
2023-01-19T23:45:14.304Z,66.35
2023-01-19T23:47:42.571Z,66.34
2023-01-19T23:50:10.111Z,66.34
2023-01-19T23:52:37.192Z,66.16
2023-01-19T23:55:04.888Z,66.12
2023-01-19T23:57:31.486Z,66.03
2023-01-19T23:59:58.241Z,66.09
